sensor_id;sensor_type;location;lat;lon;timestamp;P1;durP1;ratioP1;P2;durP2;ratioP2
24030;SDS011;12240;51.142;22.486;2024-03-23T00:54:01;57.80;;;28.90;;
24030;SDS011;12240;51.142;22.486;2024-03-23T00:56:30;58.30;;;28.10;;
24030;SDS011;12240;51.142;22.486;2024-03-23T00:58:56;54.00;;;25.90;;
24030;SDS011;12240;51.142;22.486;2024-03-23T01:01:23;55.30;;;27.10;;
24030;SDS011;12240;51.142;22.486;2024-03-23T01:03:49;57.30;;;27.80;;
24030;SDS011;12240;51.142;22.486;2024-03-23T01:06:16;56.20;;;28.10;;
24030;SDS011;12240;51.142;22.486;2024-03-23T01:08:42;53.40;;;25.70;;
24030;SDS011;12240;51.142;22.486;2024-03-23T01:11:09;52.20;;;26.30;;
24030;SDS011;12240;51.142;22.486;2024-03-23T01:13:36;53.00;;;26.90;;
24030;SDS011;12240;51.142;22.486;2024-03-23T01:16:02;52.40;;;27.00;;
24030;SDS011;12240;51.142;22.486;2024-03-23T01:18:29;57.70;;;28.40;;
24030;SDS011;12240;51.142;22.486;2024-03-23T01:20:55;54.60;;;27.40;;
24030;SDS011;12240;51.142;22.486;2024-03-23T01:23:22;58.40;;;27.30;;
24030;SDS011;12240;51.142;22.486;2024-03-23T01:25:52;55.70;;;27.80;;
24030;SDS011;12240;51.142;22.486;2024-03-23T01:28:20;57.80;;;27.60;;
24030;SDS011;12240;51.142;22.486;2024-03-23T01:30:47;52.60;;;26.90;;
24030;SDS011;12240;51.142;22.486;2024-03-23T01:33:14;58.50;;;27.00;;
24030;SDS011;12240;51.142;22.486;2024-03-23T01:35:41;60.10;;;26.90;;
24030;SDS011;12240;51.142;22.486;2024-03-23T01:38:07;56.60;;;27.10;;
24030;SDS011;12240;51.142;22.486;2024-03-23T01:40:34;54.90;;;27.40;;
24030;SDS011;12240;51.142;22.486;2024-03-23T01:43:04;59.60;;;28.10;;
24030;SDS011;12240;51.142;22.486;2024-03-23T01:45:31;55.60;;;26.90;;
24030;SDS011;12240;51.142;22.486;2024-03-23T01:47:58;57.30;;;27.10;;
24030;SDS011;12240;51.142;22.486;2024-03-23T01:50:25;54.20;;;26.00;;
24030;SDS011;12240;51.142;22.486;2024-03-23T01:52:53;53.20;;;25.60;;
24030;SDS011;12240;51.142;22.486;2024-03-23T01:55:20;58.50;;;27.60;;
24030;SDS011;12240;51.142;22.486;2024-03-23T01:57:47;58.60;;;28.70;;
24030;SDS011;12240;51.142;22.486;2024-03-23T02:00:13;56.10;;;26.40;;
24030;SDS011;12240;51.142;22.486;2024-03-23T02:02:44;56.10;;;26.80;;
24030;SDS011;12240;51.142;22.486;2024-03-23T02:05:11;58.40;;;28.60;;
24030;SDS011;12240;51.142;22.486;2024-03-23T02:07:39;58.80;;;27.60;;
24030;SDS011;12240;51.142;22.486;2024-03-23T02:10:07;56.70;;;27.50;;
24030;SDS011;12240;51.142;22.486;2024-03-23T02:12:34;50.40;;;26.10;;
24030;SDS011;12240;51.142;22.486;2024-03-23T02:15:01;55.70;;;27.10;;
24030;SDS011;12240;51.142;22.486;2024-03-23T02:17:28;58.80;;;29.00;;
24030;SDS011;12240;51.142;22.486;2024-03-23T02:20:00;59.20;;;27.30;;
24030;SDS011;12240;51.142;22.486;2024-03-23T02:22:38;60.00;;;28.20;;
24030;SDS011;12240;51.142;22.486;2024-03-23T02:25:05;59.50;;;28.60;;
24030;SDS011;12240;51.142;22.486;2024-03-23T02:27:32;53.90;;;26.60;;
24030;SDS011;12240;51.142;22.486;2024-03-23T02:30:01;60.70;;;28.80;;
24030;SDS011;12240;51.142;22.486;2024-03-23T02:32:28;58.90;;;28.50;;
24030;SDS011;12240;51.142;22.486;2024-03-23T02:34:54;58.30;;;28.30;;
24030;SDS011;12240;51.142;22.486;2024-03-23T02:37:20;62.90;;;28.40;;
24030;SDS011;12240;51.142;22.486;2024-03-23T02:39:47;61.40;;;29.00;;
24030;SDS011;12240;51.142;22.486;2024-03-23T02:42:14;64.10;;;30.90;;
24030;SDS011;12240;51.142;22.486;2024-03-23T02:44:43;61.90;;;30.80;;
24030;SDS011;12240;51.142;22.486;2024-03-23T02:47:10;63.50;;;31.10;;
24030;SDS011;12240;51.142;22.486;2024-03-23T02:49:37;60.00;;;28.50;;
24030;SDS011;12240;51.142;22.486;2024-03-23T02:52:04;59.30;;;30.30;;
24030;SDS011;12240;51.142;22.486;2024-03-23T02:54:30;65.50;;;31.00;;
24030;SDS011;12240;51.142;22.486;2024-03-23T02:56:57;61.90;;;30.10;;
24030;SDS011;12240;51.142;22.486;2024-03-23T03:02:20;62.20;;;30.50;;
24030;SDS011;12240;51.142;22.486;2024-03-23T03:04:53;66.30;;;31.20;;
24030;SDS011;12240;51.142;22.486;2024-03-23T03:07:39;64.60;;;31.20;;
24030;SDS011;12240;51.142;22.486;2024-03-23T03:10:07;67.20;;;32.20;;
24030;SDS011;12240;51.142;22.486;2024-03-23T03:12:37;64.90;;;30.90;;
24030;SDS011;12240;51.142;22.486;2024-03-23T03:15:04;67.70;;;30.60;;
24030;SDS011;12240;51.142;22.486;2024-03-23T03:17:31;65.70;;;32.40;;
24030;SDS011;12240;51.142;22.486;2024-03-23T03:19:57;67.00;;;31.40;;
24030;SDS011;12240;51.142;22.486;2024-03-23T03:22:24;69.80;;;33.40;;
24030;SDS011;12240;51.142;22.486;2024-03-23T03:24:51;69.10;;;33.40;;
24030;SDS011;12240;51.142;22.486;2024-03-23T03:27:17;66.30;;;32.10;;
24030;SDS011;12240;51.142;22.486;2024-03-23T03:29:44;64.50;;;31.20;;
24030;SDS011;12240;51.142;22.486;2024-03-23T03:32:11;65.80;;;31.70;;
24030;SDS011;12240;51.142;22.486;2024-03-23T03:34:37;66.40;;;32.10;;
24030;SDS011;12240;51.142;22.486;2024-03-23T03:37:04;64.90;;;32.00;;
24030;SDS011;12240;51.142;22.486;2024-03-23T03:39:31;66.30;;;31.80;;
24030;SDS011;12240;51.142;22.486;2024-03-23T03:41:57;59.00;;;30.30;;
24030;SDS011;12240;51.142;22.486;2024-03-23T03:44:23;66.50;;;31.30;;
24030;SDS011;12240;51.142;22.486;2024-03-23T03:46:50;63.80;;;30.60;;
24030;SDS011;12240;51.142;22.486;2024-03-23T03:49:17;59.30;;;30.00;;
24030;SDS011;12240;51.142;22.486;2024-03-23T03:51:47;62.90;;;31.00;;
24030;SDS011;12240;51.142;22.486;2024-03-23T03:54:13;69.40;;;32.30;;
24030;SDS011;12240;51.142;22.486;2024-03-23T03:56:40;62.70;;;30.60;;
24030;SDS011;12240;51.142;22.486;2024-03-23T03:59:06;62.40;;;29.70;;
24030;SDS011;12240;51.142;22.486;2024-03-23T04:01:33;66.80;;;30.50;;
24030;SDS011;12240;51.142;22.486;2024-03-23T04:04:00;67.50;;;31.60;;
24030;SDS011;12240;51.142;22.486;2024-03-23T04:06:26;67.40;;;32.50;;
24030;SDS011;12240;51.142;22.486;2024-03-23T04:08:53;63.50;;;30.10;;
24030;SDS011;12240;51.142;22.486;2024-03-23T04:11:20;60.90;;;28.90;;
24030;SDS011;12240;51.142;22.486;2024-03-23T04:13:46;65.90;;;31.00;;
24030;SDS011;12240;51.142;22.486;2024-03-23T04:16:24;60.90;;;29.10;;
24030;SDS011;12240;51.142;22.486;2024-03-23T04:18:51;60.20;;;29.20;;
24030;SDS011;12240;51.142;22.486;2024-03-23T04:21:17;61.50;;;29.70;;
24030;SDS011;12240;51.142;22.486;2024-03-23T04:23:44;58.00;;;27.80;;
24030;SDS011;12240;51.142;22.486;2024-03-23T04:26:11;60.60;;;28.70;;
24030;SDS011;12240;51.142;22.486;2024-03-23T04:28:37;62.70;;;30.80;;
24030;SDS011;12240;51.142;22.486;2024-03-23T04:31:04;68.60;;;32.20;;
24030;SDS011;12240;51.142;22.486;2024-03-23T04:33:31;65.10;;;31.30;;
24030;SDS011;12240;51.142;22.486;2024-03-23T04:35:58;63.90;;;31.50;;
24030;SDS011;12240;51.142;22.486;2024-03-23T04:38:25;58.00;;;29.50;;
24030;SDS011;12240;51.142;22.486;2024-03-23T04:40:58;62.70;;;31.50;;
24030;SDS011;12240;51.142;22.486;2024-03-23T04:43:26;57.80;;;28.30;;
24030;SDS011;12240;51.142;22.486;2024-03-23T04:45:53;65.80;;;29.40;;
24030;SDS011;12240;51.142;22.486;2024-03-23T04:48:20;63.50;;;29.60;;
24030;SDS011;12240;51.142;22.486;2024-03-23T04:50:48;59.00;;;29.50;;
24030;SDS011;12240;51.142;22.486;2024-03-23T04:53:15;57.30;;;29.20;;
24030;SDS011;12240;51.142;22.486;2024-03-23T04:55:42;57.90;;;28.80;;
24030;SDS011;12240;51.142;22.486;2024-03-23T04:58:09;65.70;;;30.80;;
24030;SDS011;12240;51.142;22.486;2024-03-23T05:00:36;61.60;;;30.50;;
24030;SDS011;12240;51.142;22.486;2024-03-23T05:03:03;62.50;;;30.20;;
24030;SDS011;12240;51.142;22.486;2024-03-23T05:05:30;54.40;;;28.50;;
24030;SDS011;12240;51.142;22.486;2024-03-23T05:07:56;58.80;;;28.30;;
24030;SDS011;12240;51.142;22.486;2024-03-23T05:10:23;55.70;;;27.90;;
24030;SDS011;12240;51.142;22.486;2024-03-23T05:12:50;58.20;;;26.50;;
24030;SDS011;12240;51.142;22.486;2024-03-23T05:15:16;55.30;;;26.00;;
24030;SDS011;12240;51.142;22.486;2024-03-23T05:17:43;57.50;;;27.60;;
24030;SDS011;12240;51.142;22.486;2024-03-23T05:20:09;53.50;;;25.70;;
24030;SDS011;12240;51.142;22.486;2024-03-23T05:22:36;53.50;;;26.10;;
24030;SDS011;12240;51.142;22.486;2024-03-23T05:25:03;53.80;;;25.40;;
24030;SDS011;12240;51.142;22.486;2024-03-23T05:27:33;59.60;;;28.40;;
24030;SDS011;12240;51.142;22.486;2024-03-23T05:30:00;57.10;;;27.80;;
24030;SDS011;12240;51.142;22.486;2024-03-23T05:32:26;55.60;;;26.30;;
24030;SDS011;12240;51.142;22.486;2024-03-23T05:34:53;56.10;;;26.10;;
24030;SDS011;12240;51.142;22.486;2024-03-23T05:37:23;54.30;;;26.60;;
24030;SDS011;12240;51.142;22.486;2024-03-23T05:39:49;53.30;;;24.60;;
24030;SDS011;12240;51.142;22.486;2024-03-23T05:42:17;56.80;;;26.60;;
24030;SDS011;12240;51.142;22.486;2024-03-23T05:44:46;59.30;;;26.10;;
24030;SDS011;12240;51.142;22.486;2024-03-23T05:47:13;51.20;;;26.30;;
24030;SDS011;12240;51.142;22.486;2024-03-23T05:49:41;57.50;;;25.50;;
24030;SDS011;12240;51.142;22.486;2024-03-23T05:52:10;53.30;;;25.10;;
24030;SDS011;12240;51.142;22.486;2024-03-23T05:54:37;52.30;;;25.50;;
24030;SDS011;12240;51.142;22.486;2024-03-23T05:57:03;49.70;;;24.80;;
24030;SDS011;12240;51.142;22.486;2024-03-23T05:59:30;56.60;;;24.80;;
24030;SDS011;12240;51.142;22.486;2024-03-23T06:01:57;48.50;;;23.60;;
24030;SDS011;12240;51.142;22.486;2024-03-23T06:04:23;52.70;;;25.90;;
24030;SDS011;12240;51.142;22.486;2024-03-23T06:06:53;53.60;;;25.60;;
24030;SDS011;12240;51.142;22.486;2024-03-23T06:09:20;49.70;;;24.00;;
24030;SDS011;12240;51.142;22.486;2024-03-23T06:11:46;50.90;;;25.80;;
24030;SDS011;12240;51.142;22.486;2024-03-23T06:14:14;55.70;;;27.10;;
24030;SDS011;12240;51.142;22.486;2024-03-23T06:16:41;52.40;;;25.20;;
24030;SDS011;12240;51.142;22.486;2024-03-23T06:19:07;49.40;;;23.40;;
24030;SDS011;12240;51.142;22.486;2024-03-23T06:21:34;53.40;;;25.80;;
24030;SDS011;12240;51.142;22.486;2024-03-23T06:24:01;48.50;;;24.40;;
24030;SDS011;12240;51.142;22.486;2024-03-23T06:26:27;50.80;;;24.70;;
24030;SDS011;12240;51.142;22.486;2024-03-23T06:28:54;45.90;;;22.90;;
24030;SDS011;12240;51.142;22.486;2024-03-23T06:31:22;46.60;;;22.20;;
24030;SDS011;12240;51.142;22.486;2024-03-23T06:33:48;45.50;;;22.10;;
24030;SDS011;12240;51.142;22.486;2024-03-23T06:36:15;47.00;;;22.00;;
24030;SDS011;12240;51.142;22.486;2024-03-23T06:38:44;53.20;;;23.50;;
24030;SDS011;12240;51.142;22.486;2024-03-23T06:41:11;43.00;;;20.90;;
24030;SDS011;12240;51.142;22.486;2024-03-23T06:43:38;41.90;;;20.90;;
24030;SDS011;12240;51.142;22.486;2024-03-23T06:46:04;43.60;;;21.60;;
24030;SDS011;12240;51.142;22.486;2024-03-23T06:48:31;40.50;;;20.50;;
24030;SDS011;12240;51.142;22.486;2024-03-23T06:50:57;45.20;;;22.00;;
24030;SDS011;12240;51.142;22.486;2024-03-23T06:53:25;45.50;;;22.80;;
24030;SDS011;12240;51.142;22.486;2024-03-23T06:55:52;42.70;;;21.70;;
24030;SDS011;12240;51.142;22.486;2024-03-23T06:58:23;45.10;;;22.20;;
24030;SDS011;12240;51.142;22.486;2024-03-23T07:00:50;46.40;;;21.50;;
24030;SDS011;12240;51.142;22.486;2024-03-23T07:03:17;46.90;;;21.50;;
24030;SDS011;12240;51.142;22.486;2024-03-23T07:05:44;42.60;;;20.80;;
24030;SDS011;12240;51.142;22.486;2024-03-23T07:08:12;46.40;;;21.70;;
24030;SDS011;12240;51.142;22.486;2024-03-23T07:10:39;45.10;;;20.40;;
24030;SDS011;12240;51.142;22.486;2024-03-23T07:13:06;39.30;;;20.10;;
24030;SDS011;12240;51.142;22.486;2024-03-23T07:15:36;43.50;;;19.70;;
24030;SDS011;12240;51.142;22.486;2024-03-23T07:18:02;49.20;;;20.30;;
24030;SDS011;12240;51.142;22.486;2024-03-23T07:20:29;39.60;;;19.70;;
24030;SDS011;12240;51.142;22.486;2024-03-23T07:22:57;40.00;;;20.20;;
24030;SDS011;12240;51.142;22.486;2024-03-23T07:25:24;44.20;;;21.50;;
24030;SDS011;12240;51.142;22.486;2024-03-23T07:27:52;42.80;;;20.90;;
24030;SDS011;12240;51.142;22.486;2024-03-23T07:30:19;46.10;;;21.70;;
24030;SDS011;12240;51.142;22.486;2024-03-23T07:32:46;44.00;;;19.60;;
24030;SDS011;12240;51.142;22.486;2024-03-23T07:35:12;41.50;;;20.00;;
24030;SDS011;12240;51.142;22.486;2024-03-23T07:37:39;41.00;;;19.60;;
24030;SDS011;12240;51.142;22.486;2024-03-23T07:40:06;40.60;;;19.20;;
24030;SDS011;12240;51.142;22.486;2024-03-23T07:42:32;40.00;;;20.30;;
24030;SDS011;12240;51.142;22.486;2024-03-23T07:44:59;38.30;;;18.50;;
24030;SDS011;12240;51.142;22.486;2024-03-23T07:47:28;31.00;;;15.70;;
24030;SDS011;12240;51.142;22.486;2024-03-23T07:49:55;33.20;;;16.60;;
24030;SDS011;12240;51.142;22.486;2024-03-23T07:52:21;37.00;;;18.40;;
24030;SDS011;12240;51.142;22.486;2024-03-23T07:54:49;36.00;;;17.10;;
24030;SDS011;12240;51.142;22.486;2024-03-23T07:57:15;40.10;;;17.70;;
24030;SDS011;12240;51.142;22.486;2024-03-23T07:59:42;34.20;;;17.80;;
24030;SDS011;12240;51.142;22.486;2024-03-23T08:02:08;41.00;;;17.40;;
24030;SDS011;12240;51.142;22.486;2024-03-23T08:04:35;31.90;;;16.20;;
24030;SDS011;12240;51.142;22.486;2024-03-23T08:07:01;34.70;;;16.20;;
24030;SDS011;12240;51.142;22.486;2024-03-23T08:09:28;36.90;;;17.40;;
24030;SDS011;12240;51.142;22.486;2024-03-23T08:11:55;37.90;;;17.90;;
24030;SDS011;12240;51.142;22.486;2024-03-23T08:14:21;35.10;;;17.70;;
24030;SDS011;12240;51.142;22.486;2024-03-23T08:16:47;36.20;;;18.80;;
24030;SDS011;12240;51.142;22.486;2024-03-23T08:19:16;36.00;;;18.20;;
24030;SDS011;12240;51.142;22.486;2024-03-23T08:21:44;40.30;;;19.80;;
24030;SDS011;12240;51.142;22.486;2024-03-23T08:24:10;44.70;;;21.00;;
24030;SDS011;12240;51.142;22.486;2024-03-23T08:26:38;36.70;;;18.80;;
24030;SDS011;12240;51.142;22.486;2024-03-23T08:29:06;38.60;;;19.80;;
24030;SDS011;12240;51.142;22.486;2024-03-23T08:31:33;41.80;;;21.00;;
24030;SDS011;12240;51.142;22.486;2024-03-23T08:33:59;40.00;;;19.50;;
24030;SDS011;12240;51.142;22.486;2024-03-23T08:36:26;37.20;;;18.80;;
24030;SDS011;12240;51.142;22.486;2024-03-23T08:38:53;43.30;;;20.80;;
24030;SDS011;12240;51.142;22.486;2024-03-23T08:41:21;43.30;;;20.40;;
24030;SDS011;12240;51.142;22.486;2024-03-23T08:43:47;39.60;;;20.00;;
24030;SDS011;12240;51.142;22.486;2024-03-23T08:46:15;41.80;;;20.40;;
24030;SDS011;12240;51.142;22.486;2024-03-23T08:48:45;36.90;;;19.00;;
24030;SDS011;12240;51.142;22.486;2024-03-23T08:51:16;39.70;;;20.00;;
24030;SDS011;12240;51.142;22.486;2024-03-23T08:53:43;40.00;;;20.20;;
24030;SDS011;12240;51.142;22.486;2024-03-23T08:56:11;45.60;;;19.80;;
24030;SDS011;12240;51.142;22.486;2024-03-23T08:58:39;36.90;;;18.50;;
24030;SDS011;12240;51.142;22.486;2024-03-23T09:01:10;40.40;;;19.80;;
24030;SDS011;12240;51.142;22.486;2024-03-23T09:03:39;41.30;;;19.60;;
24030;SDS011;12240;51.142;22.486;2024-03-23T09:06:10;42.00;;;20.00;;
24030;SDS011;12240;51.142;22.486;2024-03-23T09:08:39;42.80;;;20.20;;
24030;SDS011;12240;51.142;22.486;2024-03-23T09:11:07;38.70;;;18.50;;
24030;SDS011;12240;51.142;22.486;2024-03-23T09:13:36;37.80;;;18.80;;
24030;SDS011;12240;51.142;22.486;2024-03-23T09:16:04;37.80;;;18.20;;
24030;SDS011;12240;51.142;22.486;2024-03-23T09:18:33;41.60;;;19.40;;
24030;SDS011;12240;51.142;22.486;2024-03-23T09:21:10;40.60;;;19.90;;
24030;SDS011;12240;51.142;22.486;2024-03-23T09:23:45;39.90;;;18.60;;
24030;SDS011;12240;51.142;22.486;2024-03-23T09:26:12;37.40;;;17.50;;
24030;SDS011;12240;51.142;22.486;2024-03-23T09:28:39;38.90;;;18.50;;
24030;SDS011;12240;51.142;22.486;2024-03-23T09:31:06;38.80;;;18.20;;
24030;SDS011;12240;51.142;22.486;2024-03-23T09:33:34;36.00;;;17.50;;
24030;SDS011;12240;51.142;22.486;2024-03-23T09:36:05;34.50;;;18.10;;
24030;SDS011;12240;51.142;22.486;2024-03-23T09:38:32;38.90;;;18.20;;
24030;SDS011;12240;51.142;22.486;2024-03-23T09:40:59;38.90;;;19.80;;
24030;SDS011;12240;51.142;22.486;2024-03-23T09:43:26;40.00;;;19.40;;
24030;SDS011;12240;51.142;22.486;2024-03-23T09:45:53;34.60;;;17.20;;
24030;SDS011;12240;51.142;22.486;2024-03-23T09:48:20;37.00;;;17.50;;
24030;SDS011;12240;51.142;22.486;2024-03-23T09:50:46;39.10;;;18.20;;
24030;SDS011;12240;51.142;22.486;2024-03-23T09:53:15;38.60;;;19.70;;
24030;SDS011;12240;51.142;22.486;2024-03-23T09:55:42;34.40;;;16.90;;
24030;SDS011;12240;51.142;22.486;2024-03-23T09:58:17;34.10;;;17.10;;
24030;SDS011;12240;51.142;22.486;2024-03-23T10:00:44;39.40;;;18.60;;
24030;SDS011;12240;51.142;22.486;2024-03-23T10:03:11;34.60;;;17.50;;
24030;SDS011;12240;51.142;22.486;2024-03-23T10:05:38;37.20;;;18.50;;
24030;SDS011;12240;51.142;22.486;2024-03-23T10:10:39;29.20;;;14.80;;
24030;SDS011;12240;51.142;22.486;2024-03-23T10:13:10;35.00;;;16.60;;
24030;SDS011;12240;51.142;22.486;2024-03-23T10:15:40;37.70;;;16.70;;
24030;SDS011;12240;51.142;22.486;2024-03-23T10:23:37;26.60;;;13.50;;
24030;SDS011;12240;51.142;22.486;2024-03-23T10:29:53;27.90;;;13.40;;
24030;SDS011;12240;51.142;22.486;2024-03-23T10:32:34;23.80;;;13.00;;
24030;SDS011;12240;51.142;22.486;2024-03-23T10:37:55;24.80;;;12.30;;
24030;SDS011;12240;51.142;22.486;2024-03-23T10:40:23;30.20;;;13.10;;
24030;SDS011;12240;51.142;22.486;2024-03-23T10:45:45;26.90;;;13.70;;
24030;SDS011;12240;51.142;22.486;2024-03-23T10:48:12;27.40;;;13.00;;
24030;SDS011;12240;51.142;22.486;2024-03-23T10:50:38;27.90;;;14.10;;
24030;SDS011;12240;51.142;22.486;2024-03-23T10:53:05;30.10;;;13.70;;
24030;SDS011;12240;51.142;22.486;2024-03-23T10:55:32;30.50;;;14.10;;
24030;SDS011;12240;51.142;22.486;2024-03-23T10:58:00;31.60;;;15.40;;
24030;SDS011;12240;51.142;22.486;2024-03-23T11:00:28;27.10;;;14.20;;
24030;SDS011;12240;51.142;22.486;2024-03-23T11:02:54;32.20;;;15.70;;
24030;SDS011;12240;51.142;22.486;2024-03-23T11:05:39;26.90;;;14.90;;
24030;SDS011;12240;51.142;22.486;2024-03-23T11:08:05;27.20;;;13.90;;
24030;SDS011;12240;51.142;22.486;2024-03-23T11:10:32;23.60;;;12.90;;
24030;SDS011;12240;51.142;22.486;2024-03-23T11:15:50;28.90;;;14.20;;
24030;SDS011;12240;51.142;22.486;2024-03-23T11:18:20;24.80;;;13.60;;
24030;SDS011;12240;51.142;22.486;2024-03-23T11:20:47;29.80;;;14.20;;
24030;SDS011;12240;51.142;22.486;2024-03-23T11:23:27;25.30;;;12.80;;
24030;SDS011;12240;51.142;22.486;2024-03-23T11:25:54;24.60;;;12.80;;
24030;SDS011;12240;51.142;22.486;2024-03-23T11:28:21;22.90;;;12.70;;
24030;SDS011;12240;51.142;22.486;2024-03-23T11:30:47;21.40;;;11.40;;
24030;SDS011;12240;51.142;22.486;2024-03-23T11:33:14;26.40;;;12.70;;
24030;SDS011;12240;51.142;22.486;2024-03-23T11:35:42;25.80;;;12.90;;
24030;SDS011;12240;51.142;22.486;2024-03-23T11:40:36;26.00;;;14.00;;
24030;SDS011;12240;51.142;22.486;2024-03-23T11:43:05;21.40;;;12.10;;
24030;SDS011;12240;51.142;22.486;2024-03-23T11:45:43;23.60;;;12.60;;
24030;SDS011;12240;51.142;22.486;2024-03-23T11:48:14;24.70;;;13.50;;
24030;SDS011;12240;51.142;22.486;2024-03-23T11:50:44;26.20;;;13.80;;
24030;SDS011;12240;51.142;22.486;2024-03-23T11:53:13;25.00;;;13.30;;
24030;SDS011;12240;51.142;22.486;2024-03-23T11:58:16;23.60;;;11.80;;
24030;SDS011;12240;51.142;22.486;2024-03-23T12:03:03;23.40;;;12.40;;
24030;SDS011;12240;51.142;22.486;2024-03-23T12:05:29;20.50;;;12.30;;
24030;SDS011;12240;51.142;22.486;2024-03-23T12:08:18;24.50;;;13.00;;
24030;SDS011;12240;51.142;22.486;2024-03-23T12:10:46;23.60;;;12.30;;
24030;SDS011;12240;51.142;22.486;2024-03-23T12:13:14;20.00;;;12.40;;
24030;SDS011;12240;51.142;22.486;2024-03-23T12:15:43;27.00;;;13.50;;
24030;SDS011;12240;51.142;22.486;2024-03-23T12:18:10;23.60;;;12.80;;
24030;SDS011;12240;51.142;22.486;2024-03-23T12:20:37;25.20;;;13.30;;
24030;SDS011;12240;51.142;22.486;2024-03-23T12:23:07;22.80;;;12.60;;
24030;SDS011;12240;51.142;22.486;2024-03-23T12:25:35;28.70;;;14.20;;
24030;SDS011;12240;51.142;22.486;2024-03-23T12:28:01;24.30;;;13.50;;
24030;SDS011;12240;51.142;22.486;2024-03-23T12:30:28;27.10;;;14.10;;
24030;SDS011;12240;51.142;22.486;2024-03-23T12:32:54;23.20;;;13.00;;
24030;SDS011;12240;51.142;22.486;2024-03-23T12:35:20;25.60;;;13.50;;
24030;SDS011;12240;51.142;22.486;2024-03-23T12:37:46;24.40;;;13.30;;
24030;SDS011;12240;51.142;22.486;2024-03-23T12:40:13;22.00;;;12.20;;
24030;SDS011;12240;51.142;22.486;2024-03-23T12:42:39;22.80;;;12.10;;
24030;SDS011;12240;51.142;22.486;2024-03-23T12:45:05;22.40;;;12.70;;
24030;SDS011;12240;51.142;22.486;2024-03-23T12:47:31;26.00;;;12.60;;
24030;SDS011;12240;51.142;22.486;2024-03-23T12:49:57;22.40;;;12.90;;
24030;SDS011;12240;51.142;22.486;2024-03-23T12:52:23;25.40;;;12.90;;
24030;SDS011;12240;51.142;22.486;2024-03-23T12:54:54;21.30;;;12.30;;
24030;SDS011;12240;51.142;22.486;2024-03-23T12:57:25;24.20;;;12.40;;
24030;SDS011;12240;51.142;22.486;2024-03-23T12:59:52;21.00;;;11.60;;
24030;SDS011;12240;51.142;22.486;2024-03-23T13:02:19;21.50;;;11.50;;
24030;SDS011;12240;51.142;22.486;2024-03-23T13:04:49;19.80;;;10.90;;
24030;SDS011;12240;51.142;22.486;2024-03-23T13:07:16;19.20;;;11.60;;
24030;SDS011;12240;51.142;22.486;2024-03-23T13:09:43;22.60;;;11.90;;
24030;SDS011;12240;51.142;22.486;2024-03-23T13:12:10;20.00;;;11.10;;
24030;SDS011;12240;51.142;22.486;2024-03-23T13:14:39;20.60;;;11.90;;
24030;SDS011;12240;51.142;22.486;2024-03-23T13:17:06;19.30;;;11.40;;
24030;SDS011;12240;51.142;22.486;2024-03-23T13:19:33;20.20;;;11.10;;
24030;SDS011;12240;51.142;22.486;2024-03-23T13:22:00;18.70;;;10.20;;
24030;SDS011;12240;51.142;22.486;2024-03-23T13:24:27;23.40;;;12.40;;
24030;SDS011;12240;51.142;22.486;2024-03-23T13:26:54;21.80;;;10.90;;
24030;SDS011;12240;51.142;22.486;2024-03-23T13:29:21;20.80;;;12.10;;
24030;SDS011;12240;51.142;22.486;2024-03-23T13:31:49;18.40;;;10.90;;
24030;SDS011;12240;51.142;22.486;2024-03-23T13:34:16;20.80;;;11.70;;
24030;SDS011;12240;51.142;22.486;2024-03-23T13:36:46;21.60;;;12.10;;
24030;SDS011;12240;51.142;22.486;2024-03-23T13:39:13;18.90;;;11.10;;
24030;SDS011;12240;51.142;22.486;2024-03-23T13:41:42;25.00;;;11.50;;
24030;SDS011;12240;51.142;22.486;2024-03-23T13:44:11;19.00;;;10.40;;
24030;SDS011;12240;51.142;22.486;2024-03-23T13:46:39;20.00;;;10.80;;
24030;SDS011;12240;51.142;22.486;2024-03-23T13:51:58;19.60;;;10.90;;
24030;SDS011;12240;51.142;22.486;2024-03-23T13:54:25;20.50;;;11.30;;
24030;SDS011;12240;51.142;22.486;2024-03-23T13:56:52;23.00;;;10.20;;
24030;SDS011;12240;51.142;22.486;2024-03-23T13:59:20;17.50;;;9.80;;
24030;SDS011;12240;51.142;22.486;2024-03-23T14:01:47;19.20;;;10.10;;
24030;SDS011;12240;51.142;22.486;2024-03-23T14:04:13;19.00;;;10.70;;
24030;SDS011;12240;51.142;22.486;2024-03-23T14:06:39;18.70;;;10.00;;
24030;SDS011;12240;51.142;22.486;2024-03-23T14:09:05;16.80;;;10.20;;
24030;SDS011;12240;51.142;22.486;2024-03-23T14:11:35;16.70;;;10.80;;
24030;SDS011;12240;51.142;22.486;2024-03-23T14:14:03;18.10;;;10.40;;
24030;SDS011;12240;51.142;22.486;2024-03-23T14:16:30;20.40;;;10.10;;
24030;SDS011;12240;51.142;22.486;2024-03-23T14:18:57;18.60;;;10.20;;
24030;SDS011;12240;51.142;22.486;2024-03-23T14:21:23;21.20;;;10.80;;
24030;SDS011;12240;51.142;22.486;2024-03-23T14:23:49;16.10;;;9.40;;
24030;SDS011;12240;51.142;22.486;2024-03-23T14:26:15;16.40;;;9.70;;
24030;SDS011;12240;51.142;22.486;2024-03-23T14:28:41;17.70;;;9.40;;
24030;SDS011;12240;51.142;22.486;2024-03-23T14:31:07;19.40;;;10.00;;
24030;SDS011;12240;51.142;22.486;2024-03-23T14:33:39;15.70;;;9.30;;
24030;SDS011;12240;51.142;22.486;2024-03-23T14:36:23;16.30;;;9.80;;
24030;SDS011;12240;51.142;22.486;2024-03-23T14:38:50;17.30;;;9.50;;
24030;SDS011;12240;51.142;22.486;2024-03-23T14:41:20;19.60;;;10.10;;
24030;SDS011;12240;51.142;22.486;2024-03-23T14:43:47;20.50;;;9.70;;
24030;SDS011;12240;51.142;22.486;2024-03-23T14:46:16;15.80;;;9.10;;
24030;SDS011;12240;51.142;22.486;2024-03-23T14:48:46;17.20;;;9.60;;
24030;SDS011;12240;51.142;22.486;2024-03-23T14:51:13;17.70;;;9.60;;
24030;SDS011;12240;51.142;22.486;2024-03-23T14:53:45;17.10;;;9.30;;
24030;SDS011;12240;51.142;22.486;2024-03-23T14:56:14;16.80;;;9.50;;
24030;SDS011;12240;51.142;22.486;2024-03-23T14:58:42;21.10;;;10.00;;
24030;SDS011;12240;51.142;22.486;2024-03-23T15:01:13;20.50;;;10.00;;
24030;SDS011;12240;51.142;22.486;2024-03-23T15:03:40;17.40;;;9.90;;
24030;SDS011;12240;51.142;22.486;2024-03-23T15:06:09;17.00;;;9.60;;
24030;SDS011;12240;51.142;22.486;2024-03-23T15:08:35;18.00;;;9.60;;
24030;SDS011;12240;51.142;22.486;2024-03-23T15:11:02;18.10;;;9.60;;
24030;SDS011;12240;51.142;22.486;2024-03-23T15:13:35;15.30;;;9.10;;
24030;SDS011;12240;51.142;22.486;2024-03-23T15:16:04;18.10;;;10.20;;
24030;SDS011;12240;51.142;22.486;2024-03-23T15:18:33;16.20;;;9.00;;
24030;SDS011;12240;51.142;22.486;2024-03-23T15:21:04;18.80;;;9.90;;
24030;SDS011;12240;51.142;22.486;2024-03-23T15:23:35;17.70;;;9.60;;
24030;SDS011;12240;51.142;22.486;2024-03-23T15:26:02;16.80;;;9.80;;
24030;SDS011;12240;51.142;22.486;2024-03-23T15:28:28;17.70;;;9.80;;
24030;SDS011;12240;51.142;22.486;2024-03-23T15:31:07;19.00;;;10.20;;
24030;SDS011;12240;51.142;22.486;2024-03-23T15:33:37;15.70;;;9.70;;
24030;SDS011;12240;51.142;22.486;2024-03-23T15:36:05;18.00;;;9.70;;
24030;SDS011;12240;51.142;22.486;2024-03-23T15:38:32;16.80;;;10.20;;